createdAt,value
2022-11-25T00:01:31.275Z,47.27
2022-11-25T00:03:59.705Z,48.53
2022-11-25T00:06:32.990Z,46.17
2022-11-25T00:09:11.135Z,39.33
2022-11-25T00:11:41.375Z,44.57
2022-11-25T00:14:13.538Z,50.07
2022-11-25T00:16:44.980Z,44.27
2022-11-25T00:19:14.781Z,45.17
2022-11-25T00:21:41.648Z,44.80
2022-11-25T00:24:08.763Z,40.40
2022-11-25T00:26:36.711Z,43.77
2022-11-25T00:29:07.830Z,43.73
2022-11-25T00:31:37.976Z,47.53
2022-11-25T00:34:05.437Z,42.00
2022-11-25T00:36:35.493Z,47.90
2022-11-25T00:39:06.434Z,44.83
2022-11-25T00:41:52.196Z,46.67
2022-11-25T00:44:37.499Z,53.77
2022-11-25T00:47:18.179Z,39.13
2022-11-25T00:49:53.827Z,40.63
2022-11-25T00:52:25.247Z,44.70
2022-11-25T00:54:53.082Z,39.37
2022-11-25T00:57:22.733Z,45.77
2022-11-25T00:59:49.910Z,42.90
2022-11-25T01:02:18.071Z,44.83
2022-11-25T01:04:45.891Z,50.07
2022-11-25T01:07:16.035Z,45.40
2022-11-25T01:09:42.959Z,47.70
2022-11-25T01:12:09.856Z,49.57
2022-11-25T01:14:37.350Z,45.87
2022-11-25T01:17:04.773Z,55.43
2022-11-25T01:19:33.146Z,48.00
2022-11-25T01:22:00.269Z,45.93
2022-11-25T01:24:27.166Z,47.37
2022-11-25T01:26:55.768Z,57.87
2022-11-25T01:29:23.048Z,50.93
2022-11-25T01:31:50.364Z,50.00
2022-11-25T01:34:24.575Z,45.00
2022-11-25T01:36:51.693Z,48.60
2022-11-25T01:39:31.683Z,49.53
2022-11-25T01:41:59.870Z,43.80
2022-11-25T01:44:30.552Z,43.83
2022-11-25T01:47:04.915Z,49.53
2022-11-25T01:49:53.431Z,58.50
2022-11-25T01:52:32.529Z,49.40
2022-11-25T01:55:08.129Z,45.50
2022-11-25T01:57:47.637Z,46.90
2022-11-25T02:00:15.704Z,50.20
2022-11-25T02:02:46.807Z,54.87
2022-11-25T02:05:18.693Z,50.80
2022-11-25T02:07:48.912Z,47.53
2022-11-25T02:10:25.831Z,56.37
2022-11-25T02:12:53.380Z,48.30
2022-11-25T02:15:21.801Z,44.97
2022-11-25T02:17:49.341Z,56.57
2022-11-25T02:20:20.702Z,48.17
2022-11-25T02:23:16.191Z,47.30
2022-11-25T02:25:46.846Z,43.93
2022-11-25T02:28:23.133Z,41.13
2022-11-25T02:30:50.738Z,46.10
2022-11-25T02:33:19.430Z,45.47
2022-11-25T02:36:14.836Z,51.23
2022-11-25T02:38:48.154Z,43.33
2022-11-25T02:41:26.342Z,43.33
2022-11-25T02:43:58.887Z,40.43
2022-11-25T02:46:27.471Z,47.53
2022-11-25T02:49:12.487Z,52.73
2022-11-25T02:51:44.863Z,41.70
2022-11-25T02:54:14.498Z,45.53
2022-11-25T02:56:41.637Z,43.73
2022-11-25T02:59:09.197Z,39.77
2022-11-25T03:01:38.141Z,43.97
2022-11-25T03:04:07.315Z,45.23
2022-11-25T03:06:34.678Z,46.00
2022-11-25T03:09:01.676Z,47.40
2022-11-25T03:11:46.933Z,41.10
2022-11-25T03:14:15.071Z,39.63
2022-11-25T03:16:43.594Z,38.90
2022-11-25T03:19:10.631Z,39.60
2022-11-25T03:21:37.552Z,36.67
2022-11-25T03:24:04.654Z,38.20
2022-11-25T03:26:31.556Z,40.40
2022-11-25T03:28:58.455Z,45.93
2022-11-25T03:31:25.460Z,41.93
2022-11-25T03:33:52.461Z,44.73
2022-11-25T03:36:21.059Z,46.73
2022-11-25T03:38:48.127Z,45.80
2022-11-25T03:41:15.045Z,43.07
2022-11-25T03:43:42.275Z,40.90
2022-11-25T03:46:09.177Z,46.07
2022-11-25T03:48:36.455Z,42.67
2022-11-25T03:51:03.405Z,42.73
2022-11-25T03:53:30.498Z,45.53
2022-11-25T03:56:00.161Z,46.50
2022-11-25T03:58:27.075Z,59.37
2022-11-25T04:00:59.350Z,49.40
2022-11-25T04:03:26.283Z,62.33
2022-11-25T04:05:53.190Z,46.10
2022-11-25T04:08:20.937Z,48.97
2022-11-25T04:10:51.851Z,64.00
2022-11-25T04:13:22.825Z,72.17
2022-11-25T04:15:52.140Z,61.67
2022-11-25T04:18:20.362Z,96.90
2022-11-25T04:20:51.262Z,103.27
2022-11-25T04:23:18.167Z,77.03
2022-11-25T04:25:53.537Z,112.77
2022-11-25T04:28:26.381Z,96.27
2022-11-25T04:30:53.367Z,73.57
2022-11-25T04:33:20.271Z,73.07
2022-11-25T04:35:48.538Z,79.20
2022-11-25T04:38:15.453Z,84.40
2022-11-25T04:40:42.759Z,96.30
2022-11-25T04:43:19.638Z,72.97
2022-11-25T04:46:20.126Z,72.13
2022-11-25T04:48:49.994Z,86.73
2022-11-25T04:51:17.275Z,51.87
2022-11-25T04:53:45.775Z,61.67
2022-11-25T04:56:19.515Z,74.27
2022-11-25T04:59:08.233Z,105.67
2022-11-25T05:01:39.138Z,56.33
2022-11-25T05:04:31.958Z,79.53
2022-11-25T05:06:58.847Z,108.53
2022-11-25T05:09:26.198Z,142.00
2022-11-25T05:12:05.969Z,71.37
2022-11-25T05:14:34.882Z,80.47
2022-11-25T05:17:04.055Z,90.90
2022-11-25T05:19:31.371Z,66.77
2022-11-25T05:21:58.354Z,58.77
2022-11-25T05:24:26.045Z,158.40
2022-11-25T05:26:53.885Z,78.13
2022-11-25T05:29:21.062Z,79.57
2022-11-25T05:31:48.419Z,54.63
2022-11-25T05:34:16.118Z,80.00
2022-11-25T05:36:44.431Z,56.03
2022-11-25T05:39:12.042Z,43.27
2022-11-25T05:42:04.921Z,39.40
2022-11-25T05:44:31.994Z,37.97
2022-11-25T05:46:59.118Z,46.53
2022-11-25T05:49:26.061Z,37.53
2022-11-25T05:51:52.948Z,41.80
2022-11-25T05:54:22.474Z,44.30
2022-11-25T05:56:50.122Z,37.00
2022-11-25T05:59:31.633Z,32.53
2022-11-25T06:02:05.219Z,38.27
2022-11-25T06:04:32.706Z,38.40
2022-11-25T06:06:59.651Z,37.53
2022-11-25T06:09:26.620Z,37.20
2022-11-25T06:11:53.577Z,37.60
2022-11-25T06:14:20.482Z,42.33
2022-11-25T06:16:49.308Z,32.13
2022-11-25T06:19:38.773Z,39.47
2022-11-25T06:22:06.591Z,39.50
2022-11-25T06:24:35.035Z,48.83
2022-11-25T06:27:06.205Z,39.03
2022-11-25T06:29:35.664Z,37.20
2022-11-25T06:32:03.023Z,45.33
2022-11-25T06:34:55.916Z,42.60
2022-11-25T06:37:46.059Z,40.00
2022-11-25T06:40:13.244Z,39.17
2022-11-25T06:42:40.451Z,45.50
2022-11-25T06:45:08.180Z,48.07
2022-11-25T06:47:35.086Z,53.63
2022-11-25T06:50:01.996Z,42.60
2022-11-25T06:52:31.628Z,42.03
2022-11-25T06:54:58.582Z,42.57
2022-11-25T06:57:25.508Z,51.17
2022-11-25T06:59:52.482Z,51.30
2022-11-25T07:02:19.603Z,43.80
2022-11-25T07:04:46.549Z,45.67
2022-11-25T07:07:13.498Z,42.47
2022-11-25T07:09:40.584Z,40.40
2022-11-25T07:12:07.679Z,45.50
2022-11-25T07:14:34.859Z,50.97
2022-11-25T07:17:01.993Z,44.33
2022-11-25T07:19:33.244Z,46.80
2022-11-25T07:22:00.121Z,41.53
2022-11-25T07:24:27.190Z,40.77
2022-11-25T07:26:54.061Z,44.23
2022-11-25T07:29:50.429Z,48.00
2022-11-25T07:32:10.788Z,44.37
2022-11-25T07:34:38.302Z,44.47
2022-11-25T07:37:05.178Z,39.30
2022-11-25T07:39:32.098Z,41.40
2022-11-25T07:41:58.960Z,46.70
2022-11-25T07:44:25.908Z,46.40
2022-11-25T07:47:00.476Z,47.57
2022-11-25T07:49:27.387Z,50.73
2022-11-25T07:51:59.567Z,39.03
2022-11-25T07:54:26.810Z,47.13
2022-11-25T07:56:53.791Z,44.93
2022-11-25T07:59:23.059Z,41.73
2022-11-25T08:01:55.283Z,44.80
2022-11-25T08:04:23.219Z,35.13
2022-11-25T08:06:51.914Z,49.80
2022-11-25T08:09:22.371Z,41.07
2022-11-25T08:11:49.723Z,54.83
2022-11-25T08:14:17.556Z,41.37
2022-11-25T08:16:44.868Z,41.50
2022-11-25T08:19:15.810Z,49.50
2022-11-25T08:21:43.230Z,37.60
2022-11-25T08:24:20.229Z,45.37
2022-11-25T08:26:47.988Z,44.30
2022-11-25T08:29:17.012Z,42.07
2022-11-25T08:31:44.102Z,42.27
2022-11-25T08:34:22.948Z,49.73
2022-11-25T08:36:53.506Z,45.07
2022-11-25T08:39:50.410Z,44.70
2022-11-25T08:42:08.884Z,63.60
2022-11-25T08:44:36.304Z,61.93
2022-11-25T08:47:03.301Z,52.43
2022-11-25T08:49:32.735Z,41.43
2022-11-25T08:52:02.986Z,50.00
2022-11-25T08:54:30.654Z,42.07
2022-11-25T08:56:57.527Z,54.83
2022-11-25T08:59:25.207Z,44.47
2022-11-25T09:01:52.279Z,63.13
2022-11-25T09:04:19.259Z,53.70
2022-11-25T09:06:46.192Z,40.17
2022-11-25T09:09:13.063Z,57.17
2022-11-25T09:11:40.100Z,42.70
2022-11-25T09:14:07.113Z,43.03
2022-11-25T09:16:34.268Z,44.00
2022-11-25T09:19:01.277Z,39.17
2022-11-25T09:21:28.272Z,38.40
2022-11-25T09:23:55.339Z,38.60
2022-11-25T09:26:28.927Z,40.23
2022-11-25T09:28:56.612Z,41.73
2022-11-25T09:31:24.300Z,37.00
2022-11-25T09:33:51.199Z,40.13
2022-11-25T09:36:19.624Z,33.73
2022-11-25T09:38:46.874Z,38.53
2022-11-25T09:41:52.112Z,29.90
2022-11-25T09:45:14.445Z,44.80
2022-11-25T09:48:23.248Z,37.63
2022-11-25T09:51:17.508Z,45.17
2022-11-25T09:53:54.169Z,39.63
2022-11-25T09:56:42.787Z,41.70
2022-11-25T09:59:19.109Z,61.37
2022-11-25T10:02:02.229Z,34.97
2022-11-25T10:04:44.530Z,43.47
2022-11-25T10:07:21.565Z,50.53
2022-11-25T10:09:48.506Z,38.20
2022-11-25T10:12:32.919Z,38.20
2022-11-25T10:15:13.946Z,45.67
2022-11-25T10:17:50.074Z,62.10
2022-11-25T10:20:25.594Z,41.30
2022-11-25T10:22:57.288Z,39.10
2022-11-25T10:25:36.858Z,53.20
2022-11-25T10:28:36.454Z,39.50
2022-11-25T10:31:20.817Z,46.60
2022-11-25T10:33:53.096Z,49.40
2022-11-25T10:36:40.461Z,35.57
2022-11-25T10:39:24.619Z,43.60
2022-11-25T10:41:55.795Z,38.70
2022-11-25T10:44:35.384Z,37.93
2022-11-25T10:47:31.557Z,35.47
2022-11-25T10:50:20.663Z,38.77
2022-11-25T10:52:57.792Z,43.90
2022-11-25T10:55:31.609Z,38.73
2022-11-25T10:58:00.038Z,35.47
2022-11-25T11:00:38.884Z,33.50
2022-11-25T11:03:23.407Z,33.00
2022-11-25T11:05:53.194Z,32.80
2022-11-25T11:08:37.536Z,45.77
2022-11-25T11:11:21.504Z,40.47
2022-11-25T11:13:50.819Z,39.63
2022-11-25T11:16:41.953Z,39.87
2022-11-25T11:19:26.588Z,52.90
2022-11-25T11:21:56.211Z,41.10
2022-11-25T11:24:32.171Z,54.83
2022-11-25T11:27:25.286Z,37.47
2022-11-25T11:30:13.738Z,39.57
2022-11-25T11:32:45.273Z,40.47
2022-11-25T11:35:41.650Z,38.30
2022-11-25T11:38:26.603Z,32.63
2022-11-25T11:41:04.585Z,36.40
2022-11-25T11:44:07.882Z,36.27
2022-11-25T11:47:15.529Z,37.33
2022-11-25T11:50:27.019Z,33.60
2022-11-25T11:53:23.517Z,31.90
2022-11-25T11:56:36.539Z,38.73
2022-11-25T11:59:35.579Z,36.17
2022-11-25T12:02:24.420Z,34.07
2022-11-25T12:05:05.253Z,35.33
2022-11-25T12:07:52.117Z,33.37
2022-11-25T12:10:32.875Z,34.50
2022-11-25T12:13:43.020Z,42.17
2022-11-25T12:16:27.814Z,31.77
2022-11-25T12:19:24.359Z,32.73
2022-11-25T12:22:07.869Z,40.90
2022-11-25T12:24:49.954Z,37.33
2022-11-25T12:27:36.277Z,45.37
2022-11-25T12:30:21.269Z,33.70
2022-11-25T12:33:18.132Z,34.57
2022-11-25T12:36:06.659Z,36.77
2022-11-25T12:38:46.568Z,33.70
2022-11-25T12:41:42.516Z,37.40
2022-11-25T12:44:20.112Z,35.70
2022-11-25T12:46:50.375Z,35.63
2022-11-25T12:49:23.905Z,32.97
2022-11-25T12:52:17.963Z,34.70
2022-11-25T12:55:18.152Z,36.53
2022-11-25T12:58:24.246Z,37.90
2022-11-25T13:01:39.061Z,34.83
2022-11-25T13:04:44.683Z,30.57
2022-11-25T13:07:56.584Z,32.63
2022-11-25T13:10:59.375Z,38.67
2022-11-25T13:14:25.377Z,36.30
2022-11-25T13:16:54.862Z,36.67
2022-11-25T13:19:22.712Z,35.67
2022-11-25T13:22:06.429Z,38.43
2022-11-25T13:24:39.390Z,38.97
2022-11-25T13:27:40.207Z,34.33
2022-11-25T13:30:32.786Z,32.47
2022-11-25T13:33:11.877Z,32.47
2022-11-25T13:35:54.715Z,31.83
2022-11-25T13:38:30.472Z,30.80
2022-11-25T13:41:01.179Z,32.87
2022-11-25T13:43:28.352Z,29.67
2022-11-25T13:45:56.338Z,33.33
2022-11-25T13:48:32.463Z,30.60
2022-11-25T13:51:26.959Z,32.53
2022-11-25T13:54:04.900Z,34.27
2022-11-25T13:56:37.710Z,34.67
2022-11-25T13:59:10.562Z,26.70
2022-11-25T14:01:52.979Z,32.67
2022-11-25T14:04:41.024Z,28.60
2022-11-25T14:07:33.959Z,31.20
2022-11-25T14:10:13.373Z,32.63
2022-11-25T14:13:22.103Z,26.77
2022-11-25T14:16:16.566Z,30.83
2022-11-25T14:19:52.466Z,30.00
2022-11-25T14:23:02.788Z,26.63
2022-11-25T14:25:44.356Z,28.20
2022-11-25T14:28:56.902Z,30.70
2022-11-25T14:31:45.476Z,30.50
2022-11-25T14:34:27.271Z,28.50
2022-11-25T14:37:12.510Z,33.83
2022-11-25T14:40:10.253Z,26.57
2022-11-25T14:42:42.288Z,28.07
2022-11-25T14:45:29.717Z,31.17
2022-11-25T14:47:57.144Z,29.37
2022-11-25T14:50:34.719Z,28.57
2022-11-25T14:53:11.301Z,31.03
2022-11-25T14:55:38.419Z,36.60
2022-11-25T14:58:05.276Z,30.63
2022-11-25T15:00:32.176Z,34.63
2022-11-25T15:03:07.268Z,31.30
2022-11-25T15:05:37.489Z,29.93
2022-11-25T15:08:14.737Z,33.07
2022-11-25T15:10:55.091Z,36.30
2022-11-25T15:13:46.762Z,45.50
2022-11-25T15:16:23.208Z,34.37
2022-11-25T15:18:55.658Z,36.00
2022-11-25T15:21:33.085Z,38.10
2022-11-25T15:24:00.739Z,38.53
2022-11-25T15:26:31.727Z,28.83
2022-11-25T15:29:11.333Z,32.43
2022-11-25T15:31:41.485Z,35.50
2022-11-25T15:34:13.293Z,33.10
2022-11-25T15:36:41.092Z,35.63
2022-11-25T15:39:25.877Z,33.47
2022-11-25T15:41:57.377Z,35.90
2022-11-25T15:44:48.184Z,37.20
2022-11-25T15:47:28.400Z,33.07
2022-11-25T15:50:30.059Z,31.90
2022-11-25T15:53:00.319Z,35.10
2022-11-25T15:55:38.437Z,35.17
2022-11-25T15:58:18.995Z,35.13
2022-11-25T16:01:07.267Z,35.73
2022-11-25T16:03:35.441Z,40.37
2022-11-25T16:06:02.585Z,41.20
2022-11-25T16:08:37.398Z,42.53
2022-11-25T16:11:19.245Z,39.03
2022-11-25T16:13:51.063Z,40.40
2022-11-25T16:16:25.494Z,35.10
2022-11-25T16:19:16.866Z,38.60
2022-11-25T16:21:53.071Z,45.30
2022-11-25T16:24:49.771Z,41.67
2022-11-25T16:27:29.927Z,47.90
2022-11-25T16:30:16.373Z,41.30
2022-11-25T16:32:43.273Z,37.53
2022-11-25T16:35:21.733Z,43.20
2022-11-25T16:37:49.797Z,46.50
2022-11-25T16:40:18.568Z,45.40
2022-11-25T16:42:49.936Z,38.43
2022-11-25T16:45:22.955Z,41.00
2022-11-25T16:47:50.102Z,45.50
2022-11-25T16:50:19.458Z,43.87
2022-11-25T16:52:46.560Z,41.10
2022-11-25T16:55:14.154Z,46.83
2022-11-25T16:57:42.752Z,56.40
2022-11-25T17:00:16.871Z,44.70
2022-11-25T17:02:44.996Z,48.33
2022-11-25T17:05:20.036Z,37.90
2022-11-25T17:07:48.246Z,42.87
2022-11-25T17:10:15.190Z,46.17
2022-11-25T17:12:44.155Z,49.90
2022-11-25T17:15:21.201Z,45.30
2022-11-25T17:17:49.278Z,41.73
2022-11-25T17:20:21.619Z,45.13
2022-11-25T17:22:49.694Z,49.13
2022-11-25T17:25:16.638Z,52.33
2022-11-25T17:27:46.083Z,39.70
2022-11-25T17:30:24.760Z,51.73
2022-11-25T17:33:04.938Z,48.23
2022-11-25T17:35:31.822Z,45.87
2022-11-25T17:38:00.382Z,38.40
2022-11-25T17:40:27.464Z,63.00
2022-11-25T17:42:54.386Z,60.13
2022-11-25T17:45:21.835Z,43.53
2022-11-25T17:47:49.019Z,47.87
2022-11-25T17:50:25.559Z,51.00
2022-11-25T17:52:52.846Z,43.43
2022-11-25T17:55:21.834Z,44.27
2022-11-25T17:57:49.715Z,42.40
2022-11-25T18:00:21.089Z,48.93
2022-11-25T18:02:48.259Z,42.80
2022-11-25T18:05:26.771Z,52.67
2022-11-25T18:07:54.235Z,55.17
2022-11-25T18:10:25.696Z,45.10
2022-11-25T18:12:55.454Z,49.40
2022-11-25T18:15:30.460Z,48.07
2022-11-25T18:18:19.206Z,44.50
2022-11-25T18:20:46.098Z,38.23
2022-11-25T18:23:13.008Z,44.13
2022-11-25T18:25:40.593Z,46.57
2022-11-25T18:28:07.769Z,49.97
2022-11-25T18:30:36.296Z,45.40
2022-11-25T18:33:06.153Z,55.20
2022-11-25T18:35:36.471Z,48.67
2022-11-25T18:38:04.742Z,45.10
2022-11-25T18:40:32.255Z,39.43
2022-11-25T18:43:02.621Z,45.77
2022-11-25T18:45:37.060Z,47.80
2022-11-25T18:48:17.027Z,46.87
2022-11-25T18:50:45.470Z,46.37
2022-11-25T18:53:13.745Z,38.10
2022-11-25T18:55:40.983Z,48.07
2022-11-25T18:58:21.766Z,45.13
2022-11-25T19:00:51.312Z,37.77
2022-11-25T19:03:22.712Z,48.80
2022-11-25T19:05:50.236Z,38.30
2022-11-25T19:08:18.669Z,39.23
2022-11-25T19:10:47.428Z,35.70
2022-11-25T19:13:33.489Z,40.03
2022-11-25T19:16:12.154Z,33.60
2022-11-25T19:18:39.517Z,34.70
2022-11-25T19:21:06.503Z,36.27
2022-11-25T19:23:35.939Z,33.90
2022-11-25T19:26:12.426Z,32.57
2022-11-25T19:28:39.397Z,34.70
2022-11-25T19:31:06.758Z,35.90
2022-11-25T19:33:37.078Z,35.17
2022-11-25T19:36:05.647Z,35.17
2022-11-25T19:38:33.062Z,32.53
2022-11-25T19:40:59.969Z,35.07
2022-11-25T19:43:27.076Z,30.17
2022-11-25T19:45:56.289Z,31.27
2022-11-25T19:48:26.953Z,29.77
2022-11-25T19:50:59.465Z,31.70
2022-11-25T19:53:33.189Z,36.67
2022-11-25T19:56:04.111Z,28.97
2022-11-25T19:58:31.567Z,30.93
2022-11-25T20:01:02.584Z,30.60
2022-11-25T20:03:31.321Z,31.60
2022-11-25T20:05:58.550Z,30.10
2022-11-25T20:08:28.122Z,28.23
2022-11-25T20:10:56.572Z,27.03
2022-11-25T20:13:25.935Z,28.07
2022-11-25T20:15:53.849Z,26.10
2022-11-25T20:18:23.669Z,29.90
2022-11-25T20:21:00.384Z,25.20
2022-11-25T20:23:43.629Z,26.80
2022-11-25T20:26:27.987Z,27.40
2022-11-25T20:28:54.874Z,25.43
2022-11-25T20:31:25.136Z,27.53
2022-11-25T20:33:54.392Z,27.73
2022-11-25T20:36:29.331Z,34.27
2022-11-25T20:38:58.805Z,27.33
2022-11-25T20:41:28.081Z,25.30
2022-11-25T20:43:56.735Z,24.40
2022-11-25T20:46:31.430Z,25.27
2022-11-25T20:49:06.659Z,24.73
2022-11-25T20:51:34.032Z,25.43
2022-11-25T20:54:01.327Z,26.20
2022-11-25T20:56:29.446Z,29.47
2022-11-25T20:58:56.960Z,26.93
2022-11-25T21:01:25.094Z,27.13
2022-11-25T21:03:52.081Z,29.57
2022-11-25T21:06:26.625Z,25.67
2022-11-25T21:08:56.490Z,29.37
2022-11-25T21:11:23.567Z,25.87
2022-11-25T21:13:52.010Z,28.50
2022-11-25T21:16:18.997Z,26.50
2022-11-25T21:18:45.923Z,28.77
2022-11-25T21:21:34.878Z,33.73
2022-11-25T21:24:25.295Z,27.70
2022-11-25T21:26:52.343Z,22.90
2022-11-25T21:29:19.598Z,26.33
2022-11-25T21:31:46.556Z,22.13
2022-11-25T21:34:14.175Z,26.23
2022-11-25T21:36:41.990Z,21.67
2022-11-25T21:39:27.127Z,22.53
2022-11-25T21:41:55.261Z,24.07
2022-11-25T21:44:31.497Z,21.60
2022-11-25T21:46:58.472Z,22.30
2022-11-25T21:49:26.683Z,23.90
2022-11-25T21:51:53.599Z,21.40
2022-11-25T21:54:20.510Z,24.03
2022-11-25T21:56:47.370Z,23.77
2022-11-25T21:59:19.602Z,19.87
2022-11-25T22:01:47.485Z,23.47
2022-11-25T22:04:16.664Z,22.70
2022-11-25T22:06:43.927Z,22.20
2022-11-25T22:09:11.669Z,17.70
2022-11-25T22:11:50.204Z,21.23
2022-11-25T22:14:34.442Z,25.50
2022-11-25T22:17:04.991Z,29.53
2022-11-25T22:19:32.136Z,21.90
2022-11-25T22:21:59.063Z,21.30
2022-11-25T22:24:26.137Z,23.70
2022-11-25T22:26:57.708Z,24.17
2022-11-25T22:29:34.175Z,20.83
2022-11-25T22:32:02.415Z,17.33
2022-11-25T22:34:29.399Z,20.07
2022-11-25T22:36:56.323Z,18.73
2022-11-25T22:39:26.949Z,22.43
2022-11-25T22:42:06.812Z,18.50
2022-11-25T22:44:42.851Z,19.73
2022-11-25T22:47:23.123Z,21.57
2022-11-25T22:49:50.891Z,19.90
2022-11-25T22:52:25.619Z,17.60
2022-11-25T22:54:52.874Z,17.20
2022-11-25T22:57:20.226Z,17.40
2022-11-25T22:59:47.098Z,20.20
2022-11-25T23:02:26.755Z,20.57
2022-11-25T23:04:55.912Z,18.00
2022-11-25T23:07:23.895Z,23.43
2022-11-25T23:09:51.251Z,19.50
2022-11-25T23:12:18.676Z,15.50
2022-11-25T23:14:45.690Z,19.17
2022-11-25T23:17:25.225Z,16.67
2022-11-25T23:19:53.375Z,15.30
2022-11-25T23:22:20.617Z,19.90
2022-11-25T23:24:48.876Z,16.90
2022-11-25T23:27:16.296Z,17.97
2022-11-25T23:29:43.228Z,13.30
2022-11-25T23:32:18.710Z,17.63
2022-11-25T23:34:46.014Z,14.50
2022-11-25T23:37:13.920Z,14.73
2022-11-25T23:39:41.075Z,16.43
2022-11-25T23:42:19.020Z,17.30
2022-11-25T23:44:46.182Z,14.10
2022-11-25T23:47:19.043Z,18.60
2022-11-25T23:49:48.874Z,13.77
2022-11-25T23:52:22.262Z,19.00
2022-11-25T23:54:51.342Z,13.20
2022-11-25T23:57:21.829Z,12.60
2022-11-25T23:59:49.743Z,11.37
